sensor_id;sensor_type;location;lat;lon;timestamp;pressure;altitude;pressure_sealevel;temperature;humidity
55679;BME280;41573;51.446;-2.018;2023-02-17T00:01:26;94012.47;;;9.73;100.00
55679;BME280;41573;51.446;-2.018;2023-02-17T00:03:53;93976.84;;;9.69;100.00
55679;BME280;41573;51.446;-2.018;2023-02-17T00:06:21;93910.00;;;9.72;100.00
55679;BME280;41573;51.446;-2.018;2023-02-17T00:08:48;93883.38;;;9.67;100.00
55679;BME280;41573;51.446;-2.018;2023-02-17T00:11:14;93828.69;;;9.66;100.00
55679;BME280;41573;51.446;-2.018;2023-02-17T00:13:39;93800.25;;;9.61;100.00
55679;BME280;41573;51.446;-2.018;2023-02-17T00:16:08;93768.13;;;9.63;100.00
55679;BME280;41573;51.446;-2.018;2023-02-17T00:18:34;93720.88;;;9.60;100.00
55679;BME280;41573;51.446;-2.018;2023-02-17T00:21:32;93626.09;;;9.60;100.00
55679;BME280;41573;51.446;-2.018;2023-02-17T00:23:58;93572.75;;;9.62;100.00
55679;BME280;41573;51.446;-2.018;2023-02-17T00:26:23;93512.50;;;9.57;100.00
55679;BME280;41573;51.446;-2.018;2023-02-17T00:28:49;93429.16;;;9.58;100.00
55679;BME280;41573;51.446;-2.018;2023-02-17T00:31:20;93384.31;;;9.57;100.00
55679;BME280;41573;51.446;-2.018;2023-02-17T00:33:46;93328.28;;;9.53;100.00
55679;BME280;41573;51.446;-2.018;2023-02-17T00:36:17;93246.81;;;9.54;100.00
55679;BME280;41573;51.446;-2.018;2023-02-17T00:38:45;93193.75;;;9.54;100.00
55679;BME280;41573;51.446;-2.018;2023-02-17T00:41:28;93097.16;;;9.55;100.00
55679;BME280;41573;51.446;-2.018;2023-02-17T00:43:55;93028.69;;;9.52;100.00
55679;BME280;41573;51.446;-2.018;2023-02-17T00:46:22;92984.63;;;9.56;100.00
55679;BME280;41573;51.446;-2.018;2023-02-17T00:48:48;92899.72;;;9.56;100.00
55679;BME280;41573;51.446;-2.018;2023-02-17T00:51:15;92837.38;;;9.53;100.00
55679;BME280;41573;51.446;-2.018;2023-02-17T00:53:41;92749.53;;;9.55;100.00
55679;BME280;41573;51.446;-2.018;2023-02-17T00:56:07;92659.31;;;9.55;100.00
55679;BME280;41573;51.446;-2.018;2023-02-17T00:58:34;92589.53;;;9.54;100.00
55679;BME280;41573;51.446;-2.018;2023-02-17T01:00:59;92502.25;;;9.53;100.00
55679;BME280;41573;51.446;-2.018;2023-02-17T01:03:25;92426.03;;;9.58;100.00
55679;BME280;41573;51.446;-2.018;2023-02-17T01:05:53;92310.84;;;9.59;100.00
55679;BME280;41573;51.446;-2.018;2023-02-17T01:08:22;92244.25;;;9.61;100.00
55679;BME280;41573;51.446;-2.018;2023-02-17T01:10:51;92191.19;;;9.61;100.00
55679;BME280;41573;51.446;-2.018;2023-02-17T01:13:18;92158.75;;;9.64;100.00
55679;BME280;41573;51.446;-2.018;2023-02-17T01:15:47;92110.59;;;9.57;100.00
55679;BME280;41573;51.446;-2.018;2023-02-17T01:18:14;92095.66;;;9.61;100.00
55679;BME280;41573;51.446;-2.018;2023-02-17T01:20:41;92017.44;;;9.58;100.00
55679;BME280;41573;51.446;-2.018;2023-02-17T01:23:09;91991.22;;;9.57;100.00
55679;BME280;41573;51.446;-2.018;2023-02-17T01:25:38;91935.00;;;9.55;100.00
55679;BME280;41573;51.446;-2.018;2023-02-17T01:28:19;91871.81;;;9.57;100.00
55679;BME280;41573;51.446;-2.018;2023-02-17T01:30:48;91830.44;;;9.56;100.00
55679;BME280;41573;51.446;-2.018;2023-02-17T01:33:13;91787.69;;;9.57;100.00
55679;BME280;41573;51.446;-2.018;2023-02-17T01:35:38;91749.47;;;9.58;100.00
55679;BME280;41573;51.446;-2.018;2023-02-17T01:38:04;91695.63;;;9.58;100.00
55679;BME280;41573;51.446;-2.018;2023-02-17T01:40:30;91656.63;;;9.58;100.00
55679;BME280;41573;51.446;-2.018;2023-02-17T01:42:55;91611.84;;;9.57;100.00
55679;BME280;41573;51.446;-2.018;2023-02-17T01:48:04;91532.38;;;9.52;100.00
55679;BME280;41573;51.446;-2.018;2023-02-17T01:50:45;91507.13;;;9.54;100.00
55679;BME280;41573;51.446;-2.018;2023-02-17T01:53:17;91473.72;;;9.53;100.00
55679;BME280;41573;51.446;-2.018;2023-02-17T01:55:45;91448.44;;;9.56;100.00
55679;BME280;41573;51.446;-2.018;2023-02-17T01:58:15;91418.19;;;9.57;100.00
55679;BME280;41573;51.446;-2.018;2023-02-17T02:00:45;91407.09;;;9.55;100.00
55679;BME280;41573;51.446;-2.018;2023-02-17T02:03:15;91407.72;;;9.52;100.00
55679;BME280;41573;51.446;-2.018;2023-02-17T02:05:41;91393.38;;;9.53;100.00
55679;BME280;41573;51.446;-2.018;2023-02-17T02:08:08;91408.34;;;9.48;100.00
55679;BME280;41573;51.446;-2.018;2023-02-17T02:10:34;91404.91;;;9.48;100.00
55679;BME280;41573;51.446;-2.018;2023-02-17T02:13:01;91402.41;;;9.52;100.00
55679;BME280;41573;51.446;-2.018;2023-02-17T02:15:33;91415.66;;;9.52;100.00
55679;BME280;41573;51.446;-2.018;2023-02-17T02:18:19;91437.66;;;9.52;100.00
55679;BME280;41573;51.446;-2.018;2023-02-17T02:29:24;91619.88;;;9.43;100.00
55679;BME280;41573;51.446;-2.018;2023-02-17T02:35:08;91720.78;;;9.38;100.00
55679;BME280;41573;51.446;-2.018;2023-02-17T02:37:56;91786.19;;;9.42;100.00
55679;BME280;41573;51.446;-2.018;2023-02-17T02:40:26;91873.81;;;9.37;100.00
55679;BME280;41573;51.446;-2.018;2023-02-17T02:42:55;91927.94;;;9.36;100.00
55679;BME280;41573;51.446;-2.018;2023-02-17T02:45:21;92003.28;;;9.35;100.00
55679;BME280;41573;51.446;-2.018;2023-02-17T02:47:55;92070.38;;;9.36;100.00
55679;BME280;41573;51.446;-2.018;2023-02-17T02:50:49;92124.72;;;9.38;100.00
55679;BME280;41573;51.446;-2.018;2023-02-17T02:53:54;92205.66;;;9.36;100.00
55679;BME280;41573;51.446;-2.018;2023-02-17T03:05:24;92492.91;;;9.36;100.00
55679;BME280;41573;51.446;-2.018;2023-02-17T03:08:27;92582.88;;;9.32;100.00
55679;BME280;41573;51.446;-2.018;2023-02-17T03:11:08;92652.63;;;9.33;100.00
55679;BME280;41573;51.446;-2.018;2023-02-17T03:13:37;92726.31;;;9.36;100.00
55679;BME280;41573;51.446;-2.018;2023-02-17T03:16:07;92792.16;;;9.34;100.00
55679;BME280;41573;51.446;-2.018;2023-02-17T03:25:18;92992.44;;;9.31;100.00
55679;BME280;41573;51.446;-2.018;2023-02-17T03:27:44;93091.34;;;9.32;100.00
55679;BME280;41573;51.446;-2.018;2023-02-17T03:30:10;93166.44;;;9.32;100.00
55679;BME280;41573;51.446;-2.018;2023-02-17T03:32:35;93226.94;;;9.36;100.00
55679;BME280;41573;51.446;-2.018;2023-02-17T03:35:01;93298.81;;;9.39;100.00
55679;BME280;41573;51.446;-2.018;2023-02-17T03:37:28;93365.69;;;9.41;100.00
55679;BME280;41573;51.446;-2.018;2023-02-17T03:39:53;93437.31;;;9.36;100.00
55679;BME280;41573;51.446;-2.018;2023-02-17T03:42:19;93525.44;;;9.38;100.00
55679;BME280;41573;51.446;-2.018;2023-02-17T03:44:44;93567.88;;;9.38;100.00
55679;BME280;41573;51.446;-2.018;2023-02-17T03:47:10;93666.00;;;9.33;100.00
55679;BME280;41573;51.446;-2.018;2023-02-17T03:49:35;93739.50;;;9.32;100.00
55679;BME280;41573;51.446;-2.018;2023-02-17T03:52:00;93805.00;;;9.32;100.00
55679;BME280;41573;51.446;-2.018;2023-02-17T03:54:26;93855.38;;;9.27;100.00
55679;BME280;41573;51.446;-2.018;2023-02-17T03:56:51;93922.19;;;9.24;100.00
55679;BME280;41573;51.446;-2.018;2023-02-17T03:59:17;93966.50;;;9.23;100.00
55679;BME280;41573;51.446;-2.018;2023-02-17T04:01:43;94020.91;;;9.26;100.00
55679;BME280;41573;51.446;-2.018;2023-02-17T04:04:08;94064.91;;;9.22;100.00
55679;BME280;41573;51.446;-2.018;2023-02-17T04:06:34;94103.09;;;9.21;100.00
55679;BME280;41573;51.446;-2.018;2023-02-17T04:08:59;94148.75;;;9.23;100.00
55679;BME280;41573;51.446;-2.018;2023-02-17T04:11:27;94192.50;;;9.20;100.00
55679;BME280;41573;51.446;-2.018;2023-02-17T04:13:54;94231.25;;;9.21;100.00
55679;BME280;41573;51.446;-2.018;2023-02-17T04:19:06;94276.91;;;9.23;100.00
55679;BME280;41573;51.446;-2.018;2023-02-17T04:24:48;94349.56;;;9.22;100.00
55679;BME280;41573;51.446;-2.018;2023-02-17T04:27:18;94384.41;;;9.26;100.00
55679;BME280;41573;51.446;-2.018;2023-02-17T04:29:45;94417.88;;;9.27;100.00
55679;BME280;41573;51.446;-2.018;2023-02-17T04:32:11;94444.41;;;9.27;100.00
55679;BME280;41573;51.446;-2.018;2023-02-17T04:34:37;94468.63;;;9.30;100.00
55679;BME280;41573;51.446;-2.018;2023-02-17T04:37:03;94500.44;;;9.30;100.00
55679;BME280;41573;51.446;-2.018;2023-02-17T04:39:29;94509.81;;;9.33;100.00
55679;BME280;41573;51.446;-2.018;2023-02-17T04:42:01;94540.50;;;9.29;100.00
55679;BME280;41573;51.446;-2.018;2023-02-17T04:44:51;94556.19;;;9.30;100.00
55679;BME280;41573;51.446;-2.018;2023-02-17T04:47:20;94584.44;;;9.25;100.00
55679;BME280;41573;51.446;-2.018;2023-02-17T04:49:51;94599.81;;;9.23;100.00
55679;BME280;41573;51.446;-2.018;2023-02-17T04:52:21;94604.66;;;9.26;100.00
55679;BME280;41573;51.446;-2.018;2023-02-17T04:54:47;94603.72;;;9.32;100.00
55679;BME280;41573;51.446;-2.018;2023-02-17T04:57:18;94606.38;;;9.32;100.00
55679;BME280;41573;51.446;-2.018;2023-02-17T04:59:51;94613.53;;;9.31;100.00
55679;BME280;41573;51.446;-2.018;2023-02-17T05:02:19;94636.16;;;9.34;100.00
55679;BME280;41573;51.446;-2.018;2023-02-17T05:04:52;94629.00;;;9.35;100.00
55679;BME280;41573;51.446;-2.018;2023-02-17T06:17:41;94984.84;;;9.82;100.00
55679;BME280;41573;51.446;-2.018;2023-02-17T06:20:10;95011.78;;;9.86;100.00
55679;BME280;41573;51.446;-2.018;2023-02-17T06:22:35;95035.25;;;9.89;100.00
55679;BME280;41573;51.446;-2.018;2023-02-17T06:25:01;95061.81;;;9.89;100.00
55679;BME280;41573;51.446;-2.018;2023-02-17T06:27:29;95118.19;;;9.91;100.00
55679;BME280;41573;51.446;-2.018;2023-02-17T06:30:11;95140.03;;;9.93;100.00
55679;BME280;41573;51.446;-2.018;2023-02-17T06:32:40;95192.72;;;9.96;100.00
55679;BME280;41573;51.446;-2.018;2023-02-17T06:35:07;95237.88;;;9.96;100.00
55679;BME280;41573;51.446;-2.018;2023-02-17T06:37:33;95290.44;;;9.94;100.00
55679;BME280;41573;51.446;-2.018;2023-02-17T06:39:58;95350.06;;;9.98;100.00
55679;BME280;41573;51.446;-2.018;2023-02-17T06:42:27;95352.13;;;9.96;100.00
55679;BME280;41573;51.446;-2.018;2023-02-17T06:44:53;95401.19;;;9.93;100.00
55679;BME280;41573;51.446;-2.018;2023-02-17T06:47:19;95427.97;;;9.92;100.00
55679;BME280;41573;51.446;-2.018;2023-02-17T06:49:44;95458.25;;;9.91;100.00
55679;BME280;41573;51.446;-2.018;2023-02-17T06:52:10;95478.88;;;9.89;100.00
55679;BME280;41573;51.446;-2.018;2023-02-17T06:54:35;95507.09;;;9.90;100.00
55679;BME280;41573;51.446;-2.018;2023-02-17T06:57:01;95529.97;;;9.91;100.00
55679;BME280;41573;51.446;-2.018;2023-02-17T06:59:26;95569.84;;;9.91;100.00
55679;BME280;41573;51.446;-2.018;2023-02-17T07:01:51;95585.34;;;9.94;100.00
55679;BME280;41573;51.446;-2.018;2023-02-17T07:04:17;95613.13;;;9.98;100.00
55679;BME280;41573;51.446;-2.018;2023-02-17T07:06:42;95658.31;;;9.98;100.00
55679;BME280;41573;51.446;-2.018;2023-02-17T07:09:08;95696.91;;;10.00;100.00
55679;BME280;41573;51.446;-2.018;2023-02-17T07:11:37;95733.94;;;10.02;100.00
55679;BME280;41573;51.446;-2.018;2023-02-17T07:14:03;95751.28;;;10.05;100.00
55679;BME280;41573;51.446;-2.018;2023-02-17T07:16:28;95784.00;;;10.05;100.00
55679;BME280;41573;51.446;-2.018;2023-02-17T07:18:54;95809.56;;;9.99;100.00
55679;BME280;41573;51.446;-2.018;2023-02-17T07:21:19;95850.84;;;10.02;100.00
55679;BME280;41573;51.446;-2.018;2023-02-17T07:23:45;95863.72;;;9.98;100.00
55679;BME280;41573;51.446;-2.018;2023-02-17T07:26:11;95905.22;;;9.99;100.00
55679;BME280;41573;51.446;-2.018;2023-02-17T07:28:38;95945.91;;;10.00;100.00
55679;BME280;41573;51.446;-2.018;2023-02-17T07:31:07;95938.94;;;9.99;100.00
55679;BME280;41573;51.446;-2.018;2023-02-17T07:33:34;95973.91;;;9.96;100.00
55679;BME280;41573;51.446;-2.018;2023-02-17T07:36:13;95948.53;;;9.93;100.00
55679;BME280;41573;51.446;-2.018;2023-02-17T07:38:39;95993.91;;;9.92;100.00
55679;BME280;41573;51.446;-2.018;2023-02-17T07:41:08;96068.31;;;9.92;100.00
55679;BME280;41573;51.446;-2.018;2023-02-17T07:43:33;96071.38;;;9.89;100.00
55679;BME280;41573;51.446;-2.018;2023-02-17T07:45:59;96069.34;;;9.91;100.00
55679;BME280;41573;51.446;-2.018;2023-02-17T07:48:24;96097.53;;;9.92;100.00
55679;BME280;41573;51.446;-2.018;2023-02-17T07:50:50;96104.31;;;9.94;100.00
55679;BME280;41573;51.446;-2.018;2023-02-17T07:53:15;96116.53;;;9.89;100.00
55679;BME280;41573;51.446;-2.018;2023-02-17T07:55:41;96132.09;;;9.92;100.00
55679;BME280;41573;51.446;-2.018;2023-02-17T07:58:06;96161.09;;;9.87;100.00
55679;BME280;41573;51.446;-2.018;2023-02-17T08:00:32;96142.31;;;9.88;100.00
55679;BME280;41573;51.446;-2.018;2023-02-17T08:02:59;96164.38;;;9.89;100.00
55679;BME280;41573;51.446;-2.018;2023-02-17T08:05:26;96157.59;;;9.86;100.00
55679;BME280;41573;51.446;-2.018;2023-02-17T08:08:03;96171.34;;;9.90;100.00
55679;BME280;41573;51.446;-2.018;2023-02-17T08:10:47;96175.81;;;9.89;100.00
55679;BME280;41573;51.446;-2.018;2023-02-17T08:13:32;96187.28;;;9.90;100.00
55679;BME280;41573;51.446;-2.018;2023-02-17T08:15:57;96177.47;;;9.90;100.00
55679;BME280;41573;51.446;-2.018;2023-02-17T08:18:23;96189.28;;;9.88;100.00
55679;BME280;41573;51.446;-2.018;2023-02-17T08:20:50;96185.88;;;9.94;100.00
55679;BME280;41573;51.446;-2.018;2023-02-17T08:23:16;96215.50;;;9.91;100.00
55679;BME280;41573;51.446;-2.018;2023-02-17T08:25:42;96201.19;;;9.92;100.00
55679;BME280;41573;51.446;-2.018;2023-02-17T08:28:11;96218.16;;;9.91;100.00
55679;BME280;41573;51.446;-2.018;2023-02-17T08:30:36;96217.97;;;9.92;100.00
55679;BME280;41573;51.446;-2.018;2023-02-17T08:33:04;96223.06;;;9.94;100.00
55679;BME280;41573;51.446;-2.018;2023-02-17T08:35:32;96202.44;;;9.96;100.00
55679;BME280;41573;51.446;-2.018;2023-02-17T08:38:05;96206.53;;;9.98;100.00
55679;BME280;41573;51.446;-2.018;2023-02-17T08:40:31;96221.22;;;9.94;100.00
55679;BME280;41573;51.446;-2.018;2023-02-17T08:42:57;96235.16;;;9.96;100.00
55679;BME280;41573;51.446;-2.018;2023-02-17T08:45:22;96244.56;;;9.99;100.00
55679;BME280;41573;51.446;-2.018;2023-02-17T08:47:49;96229.47;;;10.06;100.00
55679;BME280;41573;51.446;-2.018;2023-02-17T08:50:16;96227.25;;;10.10;100.00
55679;BME280;41573;51.446;-2.018;2023-02-17T08:52:45;96235.44;;;10.08;100.00
55679;BME280;41573;51.446;-2.018;2023-02-17T08:55:14;96248.31;;;10.11;100.00
55679;BME280;41573;51.446;-2.018;2023-02-17T08:57:42;96250.78;;;10.13;100.00
55679;BME280;41573;51.446;-2.018;2023-02-17T09:00:10;96287.59;;;10.16;100.00
55679;BME280;41573;51.446;-2.018;2023-02-17T09:02:37;96275.56;;;10.20;100.00
55679;BME280;41573;51.446;-2.018;2023-02-17T09:05:05;96282.94;;;10.25;100.00
55679;BME280;41573;51.446;-2.018;2023-02-17T09:07:31;96295.22;;;10.26;100.00
55679;BME280;41573;51.446;-2.018;2023-02-17T09:09:57;96280.53;;;10.30;100.00
55679;BME280;41573;51.446;-2.018;2023-02-17T09:12:24;96289.59;;;10.35;100.00
55679;BME280;41573;51.446;-2.018;2023-02-17T09:14:49;96311.06;;;10.34;100.00
55679;BME280;41573;51.446;-2.018;2023-02-17T09:17:15;96340.13;;;10.35;100.00
55679;BME280;41573;51.446;-2.018;2023-02-17T09:19:40;96330.53;;;10.41;100.00
55679;BME280;41573;51.446;-2.018;2023-02-17T09:22:08;96340.22;;;10.49;100.00
55679;BME280;41573;51.446;-2.018;2023-02-17T09:24:34;96341.63;;;10.51;100.00
55679;BME280;41573;51.446;-2.018;2023-02-17T09:27:06;96344.34;;;10.58;100.00
55679;BME280;41573;51.446;-2.018;2023-02-17T09:29:31;96355.78;;;10.59;100.00
55679;BME280;41573;51.446;-2.018;2023-02-17T09:32:00;96357.44;;;10.60;100.00
55679;BME280;41573;51.446;-2.018;2023-02-17T09:34:29;96365.03;;;10.63;100.00
55679;BME280;41573;51.446;-2.018;2023-02-17T09:37:00;96386.50;;;10.55;100.00
55679;BME280;41573;51.446;-2.018;2023-02-17T09:39:33;96382.03;;;10.62;100.00
55679;BME280;41573;51.446;-2.018;2023-02-17T09:42:03;96395.13;;;10.63;100.00
55679;BME280;41573;51.446;-2.018;2023-02-17T09:45:09;96387.16;;;10.70;100.00
55679;BME280;41573;51.446;-2.018;2023-02-17T09:48:00;96395.16;;;10.70;100.00
55679;BME280;41573;51.446;-2.018;2023-02-17T09:50:57;96388.41;;;10.74;100.00
55679;BME280;41573;51.446;-2.018;2023-02-17T09:53:51;96412.81;;;10.78;100.00
55679;BME280;41573;51.446;-2.018;2023-02-17T09:56:27;96396.44;;;10.81;100.00
55679;BME280;41573;51.446;-2.018;2023-02-17T09:58:58;96405.88;;;10.83;100.00
55679;BME280;41573;51.446;-2.018;2023-02-17T10:01:28;96414.09;;;10.89;100.00
55679;BME280;41573;51.446;-2.018;2023-02-17T10:04:01;96423.53;;;10.91;100.00
55679;BME280;41573;51.446;-2.018;2023-02-17T10:06:42;96432.50;;;10.90;100.00
55679;BME280;41573;51.446;-2.018;2023-02-17T10:12:07;96444.06;;;10.97;100.00
55679;BME280;41573;51.446;-2.018;2023-02-17T10:17:12;96425.22;;;10.99;100.00
55679;BME280;41573;51.446;-2.018;2023-02-17T10:19:54;96450.97;;;10.92;100.00
55679;BME280;41573;51.446;-2.018;2023-02-17T10:22:23;96438.91;;;10.96;100.00
55679;BME280;41573;51.446;-2.018;2023-02-17T10:24:48;96439.34;;;10.99;100.00
55679;BME280;41573;51.446;-2.018;2023-02-17T10:27:35;96456.31;;;10.98;100.00
55679;BME280;41573;51.446;-2.018;2023-02-17T10:32:40;96443.66;;;11.07;100.00
55679;BME280;41573;51.446;-2.018;2023-02-17T10:35:17;96469.31;;;11.15;100.00
55679;BME280;41573;51.446;-2.018;2023-02-17T10:38:16;96463.81;;;11.16;100.00
55679;BME280;41573;51.446;-2.018;2023-02-17T10:40:46;96477.31;;;11.15;100.00
55679;BME280;41573;51.446;-2.018;2023-02-17T10:43:20;96468.31;;;11.16;100.00
55679;BME280;41573;51.446;-2.018;2023-02-17T10:45:47;96481.44;;;11.24;100.00
55679;BME280;41573;51.446;-2.018;2023-02-17T10:48:26;96509.94;;;11.24;100.00
55679;BME280;41573;51.446;-2.018;2023-02-17T10:50:55;96509.13;;;11.30;100.00
55679;BME280;41573;51.446;-2.018;2023-02-17T10:53:24;96512.63;;;11.30;100.00
55679;BME280;41573;51.446;-2.018;2023-02-17T10:56:03;96536.81;;;11.29;100.00
55679;BME280;41573;51.446;-2.018;2023-02-17T10:58:54;96531.06;;;11.32;100.00
55679;BME280;41573;51.446;-2.018;2023-02-17T11:01:22;96547.06;;;11.32;100.00
55679;BME280;41573;51.446;-2.018;2023-02-17T11:04:08;96562.63;;;11.35;100.00
55679;BME280;41573;51.446;-2.018;2023-02-17T11:06:51;96568.97;;;11.34;100.00
55679;BME280;41573;51.446;-2.018;2023-02-17T11:09:27;96553.00;;;11.34;100.00
55679;BME280;41573;51.446;-2.018;2023-02-17T11:12:37;96533.19;;;11.43;100.00
55679;BME280;41573;51.446;-2.018;2023-02-17T11:15:16;96511.72;;;11.51;100.00
55679;BME280;41573;51.446;-2.018;2023-02-17T11:17:45;96518.91;;;11.58;100.00
55679;BME280;41573;51.446;-2.018;2023-02-17T11:22:47;96562.06;;;11.81;100.00
55679;BME280;41573;51.446;-2.018;2023-02-17T11:25:29;96593.44;;;11.86;100.00
55679;BME280;41573;51.446;-2.018;2023-02-17T11:28:02;96621.97;;;11.85;100.00
55679;BME280;41573;51.446;-2.018;2023-02-17T11:30:30;96662.16;;;11.90;100.00
55679;BME280;41573;51.446;-2.018;2023-02-17T11:32:56;96689.63;;;11.84;100.00
55679;BME280;41573;51.446;-2.018;2023-02-17T11:38:10;96731.63;;;11.82;100.00
55679;BME280;41573;51.446;-2.018;2023-02-17T11:40:35;96792.91;;;11.76;100.00
55679;BME280;41573;51.446;-2.018;2023-02-17T11:43:02;96791.66;;;11.78;100.00
55679;BME280;41573;51.446;-2.018;2023-02-17T11:45:40;96789.78;;;11.72;100.00
55679;BME280;41573;51.446;-2.018;2023-02-17T11:51:21;96798.84;;;11.78;100.00
55679;BME280;41573;51.446;-2.018;2023-02-17T11:57:32;96811.56;;;11.76;100.00
55679;BME280;41573;51.446;-2.018;2023-02-17T12:00:42;96809.50;;;11.78;100.00
55679;BME280;41573;51.446;-2.018;2023-02-17T12:03:33;96811.25;;;11.85;100.00
55679;BME280;41573;51.446;-2.018;2023-02-17T12:06:16;96844.97;;;11.78;100.00
55679;BME280;41573;51.446;-2.018;2023-02-17T12:12:16;96853.50;;;11.88;100.00
55679;BME280;41573;51.446;-2.018;2023-02-17T12:20:09;96902.44;;;11.81;100.00
55679;BME280;41573;51.446;-2.018;2023-02-17T12:28:40;96941.88;;;11.85;100.00
55679;BME280;41573;51.446;-2.018;2023-02-17T12:34:30;96977.16;;;11.87;100.00
55679;BME280;41573;51.446;-2.018;2023-02-17T12:36:59;96972.63;;;11.88;100.00
55679;BME280;41573;51.446;-2.018;2023-02-17T12:39:33;96978.81;;;11.88;100.00
55679;BME280;41573;51.446;-2.018;2023-02-17T12:42:05;96991.47;;;11.86;100.00
55679;BME280;41573;51.446;-2.018;2023-02-17T12:44:37;96989.47;;;11.88;100.00
55679;BME280;41573;51.446;-2.018;2023-02-17T12:47:10;97010.34;;;11.85;100.00
55679;BME280;41573;51.446;-2.018;2023-02-17T12:49:48;97013.56;;;11.80;100.00
55679;BME280;41573;51.446;-2.018;2023-02-17T12:52:19;97012.75;;;11.80;100.00
55679;BME280;41573;51.446;-2.018;2023-02-17T12:57:48;97016.63;;;11.77;100.00
55679;BME280;41573;51.446;-2.018;2023-02-17T13:00:20;96996.38;;;11.83;100.00
55679;BME280;41573;51.446;-2.018;2023-02-17T13:02:47;97009.06;;;11.81;100.00
55679;BME280;41573;51.446;-2.018;2023-02-17T13:05:19;97013.78;;;11.79;100.00
55679;BME280;41573;51.446;-2.018;2023-02-17T13:07:52;97027.47;;;11.76;100.00
55679;BME280;41573;51.446;-2.018;2023-02-17T13:10:33;97012.28;;;11.76;100.00
55679;BME280;41573;51.446;-2.018;2023-02-17T13:13:04;97001.63;;;11.76;100.00
55679;BME280;41573;51.446;-2.018;2023-02-17T13:15:41;97012.69;;;11.73;100.00
55679;BME280;41573;51.446;-2.018;2023-02-17T13:18:29;96996.31;;;11.76;100.00
55679;BME280;41573;51.446;-2.018;2023-02-17T13:24:12;97009.22;;;11.58;100.00
55679;BME280;41573;51.446;-2.018;2023-02-17T13:26:44;97022.44;;;11.51;100.00
55679;BME280;41573;51.446;-2.018;2023-02-17T13:29:30;97013.72;;;11.57;100.00
55679;BME280;41573;51.446;-2.018;2023-02-17T13:32:02;96987.88;;;11.58;100.00
55679;BME280;41573;51.446;-2.018;2023-02-17T13:36:57;96986.31;;;11.63;100.00
55679;BME280;41573;51.446;-2.018;2023-02-17T13:41:57;96987.06;;;11.57;100.00
55679;BME280;41573;51.446;-2.018;2023-02-17T13:44:43;96964.19;;;11.63;100.00
55679;BME280;41573;51.446;-2.018;2023-02-17T13:47:13;96979.09;;;11.57;100.00
55679;BME280;41573;51.446;-2.018;2023-02-17T13:49:41;96985.13;;;11.51;100.00
55679;BME280;41573;51.446;-2.018;2023-02-17T13:52:09;96968.72;;;11.47;100.00
55679;BME280;41573;51.446;-2.018;2023-02-17T13:54:35;96984.78;;;11.39;100.00
55679;BME280;41573;51.446;-2.018;2023-02-17T13:57:01;96976.53;;;11.34;100.00
55679;BME280;41573;51.446;-2.018;2023-02-17T13:59:27;96982.97;;;11.25;100.00
55679;BME280;41573;51.446;-2.018;2023-02-17T14:01:53;96991.53;;;11.20;100.00
55679;BME280;41573;51.446;-2.018;2023-02-17T14:04:31;96987.59;;;11.16;100.00
55679;BME280;41573;51.446;-2.018;2023-02-17T14:07:02;96955.16;;;11.12;100.00
55679;BME280;41573;51.446;-2.018;2023-02-17T14:09:33;96959.38;;;11.07;100.00
55679;BME280;41573;51.446;-2.018;2023-02-17T14:12:03;96961.84;;;11.08;100.00
55679;BME280;41573;51.446;-2.018;2023-02-17T14:14:32;96942.97;;;11.03;100.00
55679;BME280;41573;51.446;-2.018;2023-02-17T14:17:03;96937.25;;;11.06;100.00
55679;BME280;41573;51.446;-2.018;2023-02-17T14:19:31;96925.34;;;11.02;100.00
55679;BME280;41573;51.446;-2.018;2023-02-17T14:22:06;96923.66;;;11.01;100.00
55679;BME280;41573;51.446;-2.018;2023-02-17T14:24:34;96916.69;;;11.00;100.00
55679;BME280;41573;51.446;-2.018;2023-02-17T14:27:05;96907.97;;;10.91;100.00
55679;BME280;41573;51.446;-2.018;2023-02-17T14:29:41;96899.91;;;10.84;100.00
55679;BME280;41573;51.446;-2.018;2023-02-17T14:32:32;96885.31;;;10.80;100.00
55679;BME280;41573;51.446;-2.018;2023-02-17T14:37:40;96823.03;;;10.75;100.00
55679;BME280;41573;51.446;-2.018;2023-02-17T14:40:15;96797.41;;;10.74;100.00
55679;BME280;41573;51.446;-2.018;2023-02-17T14:42:41;96790.63;;;10.71;100.00
55679;BME280;41573;51.446;-2.018;2023-02-17T14:45:07;96748.81;;;10.65;100.00
55679;BME280;41573;51.446;-2.018;2023-02-17T14:47:32;96734.75;;;10.71;100.00
55679;BME280;41573;51.446;-2.018;2023-02-17T14:49:58;96683.41;;;10.77;100.00
55679;BME280;41573;51.446;-2.018;2023-02-17T14:52:24;96674.44;;;10.78;100.00
55679;BME280;41573;51.446;-2.018;2023-02-17T14:54:50;96637.34;;;10.77;100.00
55679;BME280;41573;51.446;-2.018;2023-02-17T14:57:16;96626.09;;;10.75;100.00
55679;BME280;41573;51.446;-2.018;2023-02-17T14:59:43;96617.53;;;10.79;100.00
55679;BME280;41573;51.446;-2.018;2023-02-17T15:02:19;96573.94;;;10.80;100.00
55679;BME280;41573;51.446;-2.018;2023-02-17T15:04:48;96580.88;;;10.81;100.00
55679;BME280;41573;51.446;-2.018;2023-02-17T15:07:18;96565.91;;;10.74;100.00
55679;BME280;41573;51.446;-2.018;2023-02-17T15:09:45;96571.03;;;10.75;100.00
55679;BME280;41573;51.446;-2.018;2023-02-17T15:12:15;96552.34;;;10.68;100.00
55679;BME280;41573;51.446;-2.018;2023-02-17T15:14:41;96543.72;;;10.66;100.00
55679;BME280;41573;51.446;-2.018;2023-02-17T15:17:07;96540.22;;;10.66;100.00
55679;BME280;41573;51.446;-2.018;2023-02-17T15:19:44;96526.94;;;10.66;100.00
55679;BME280;41573;51.446;-2.018;2023-02-17T15:22:11;96514.88;;;10.70;100.00
55679;BME280;41573;51.446;-2.018;2023-02-17T15:24:38;96497.91;;;10.71;100.00
55679;BME280;41573;51.446;-2.018;2023-02-17T15:27:04;96482.59;;;10.73;100.00
55679;BME280;41573;51.446;-2.018;2023-02-17T15:29:30;96476.63;;;10.71;100.00
55679;BME280;41573;51.446;-2.018;2023-02-17T15:31:59;96473.34;;;10.69;100.00
55679;BME280;41573;51.446;-2.018;2023-02-17T15:34:32;96465.16;;;10.71;100.00
55679;BME280;41573;51.446;-2.018;2023-02-17T15:36:59;96473.97;;;10.71;100.00
55679;BME280;41573;51.446;-2.018;2023-02-17T15:39:25;96472.31;;;10.70;100.00
55679;BME280;41573;51.446;-2.018;2023-02-17T15:41:53;96486.66;;;10.69;100.00